County Line, Texas
Current Conditions -  °F | °C
As of 3:15 AM on Monday 24 Nov 2014 (Local Time) from KOSA Reporting Station
Clear Clear  
Wind Chill: 43°   Ceiling: Unl
Heat Index: 48°   Visibility: 10mi
Dew Point: 37°   Wind: 13mph
Humidity: 65%   Direction: 310°NW
Pressure: 29.86"   Gusts: 16mph
Location:  32.9352°N, 94.9553°W
Report Text: KOSA 240915Z AUTO 31011G14KT 10SM CLR 09/03 A2986 RMK AO1 T00900028
Loading
Personal Weather Stations






























Interactive Weather Map New forecast layout! Learn more

10-Day Weather Forecast

Advertisements
Track Severe Weather on mobile